Time;durP1;ratioP1;P1;durP2;ratioP2;P2;SDS_P1;SDS_P2;PMS_P1;PMS_P2;Temp;Humidity;BMP_temperature;BMP_pressure;BME280_temperature;BME280_humidity;BME280_pressure;Samples;Min_cycle;Max_cycle;Signal;HPM_P1;HPM_P2
2021/09/17 00:00:46;;;;;;;39.63;25.75;;;17.90;98.20;;;;;;4978188;28;20189;-71
2021/09/17 00:03:11;;;;;;;43.05;28.30;;;17.90;98.20;;;;;;4984993;28;20185;-72
2021/09/17 00:05:37;;;;;;;47.83;29.73;;;17.90;98.30;;;;;;4999438;28;20232;-71
2021/09/17 00:08:03;;;;;;;45.95;28.73;;;17.90;98.40;;;;;;4995552;28;20197;-72
2021/09/17 00:10:28;;;;;;;56.30;30.73;;;17.90;98.60;;;;;;4976602;28;20200;-71
2021/09/17 00:12:54;;;;;;;52.88;31.83;;;18.00;98.70;;;;;;4973198;28;20189;-72
2021/09/17 00:15:20;;;;;;;55.47;32.33;;;18.00;98.80;;;;;;4990294;28;20292;-70
2021/09/17 00:17:46;;;;;;;48.75;29.38;;;18.00;98.90;;;;;;4969586;28;20186;-72
2021/09/17 00:20:14;;;;;;;44.72;27.50;;;18.00;99.00;;;;;;4967493;28;20198;-71
2021/09/17 00:22:40;;;;;;;48.03;29.83;;;18.00;99.10;;;;;;4969406;28;20237;-73
2021/09/17 00:25:07;;;;;;;45.90;27.63;;;18.00;99.10;;;;;;4976738;28;20193;-71
2021/09/17 00:27:33;;;;;;;48.03;28.67;;;18.00;99.20;;;;;;4974758;28;20764;-72
2021/09/17 00:29:59;;;;;;;44.55;29.27;;;18.00;99.20;;;;;;4997932;28;20264;-72
2021/09/17 00:32:24;;;;;;;53.15;29.65;;;18.10;99.20;;;;;;4978690;28;20195;-72
2021/09/17 00:34:50;;;;;;;47.58;31.60;;;18.10;99.30;;;;;;4997971;28;20204;-73
2021/09/17 00:37:16;;;;;;;54.17;32.78;;;18.00;99.30;;;;;;4979655;28;20193;-72
2021/09/17 00:39:41;;;;;;;53.13;31.75;;;18.00;99.40;;;;;;4991953;28;20199;-72
2021/09/17 00:42:07;;;;;;;55.40;32.78;;;18.00;99.40;;;;;;4963768;28;20682;-73
2021/09/17 00:44:33;;;;;;;50.85;30.88;;;18.00;99.50;;;;;;4991294;28;20203;-73
2021/09/17 00:46:58;;;;;;;51.33;31.35;;;18.00;99.50;;;;;;4981255;28;20185;-73
2021/09/17 00:49:25;;;;;;;52.50;31.90;;;18.00;99.60;;;;;;4999604;28;20201;-72
2021/09/17 00:51:52;;;;;;;53.42;32.30;;;18.00;99.70;;;;;;4971724;28;20196;-72
2021/09/17 00:54:18;;;;;;;61.30;35.33;;;18.00;99.80;;;;;;4979343;28;20209;-73
2021/09/17 00:56:45;;;;;;;61.72;33.83;;;18.00;99.80;;;;;;5002974;28;20180;-72
2021/09/17 00:59:11;;;;;;;61.95;34.08;;;18.00;99.90;;;;;;4983095;28;20190;-72
2021/09/17 01:01:38;;;;;;;55.03;34.50;;;18.00;99.90;;;;;;4964779;28;20669;-72
2021/09/17 01:04:08;;;;;;;58.97;34.00;;;18.00;99.90;;;;;;4999679;28;20205;-74
2021/09/17 01:06:35;;;;;;;53.88;32.05;;;18.00;99.90;;;;;;4984414;28;20340;-72
2021/09/17 01:09:01;;;;;;;60.25;35.20;;;18.00;99.90;;;;;;5004499;28;20188;-73
2021/09/17 01:11:27;;;;;;;53.65;33.00;;;18.00;99.90;;;;;;5001274;28;20189;-72
2021/09/17 01:13:53;;;;;;;56.90;33.97;;;18.00;99.90;;;;;;4975559;28;20256;-72
2021/09/17 01:16:19;;;;;;;60.80;33.45;;;18.00;99.90;;;;;;4981743;28;20191;-71
2021/09/17 01:18:45;;;;;;;61.28;34.90;;;18.00;99.90;;;;;;5004059;28;20268;-72
2021/09/17 01:21:10;;;;;;;59.08;34.00;;;18.00;99.90;;;;;;4979433;28;20208;-72
2021/09/17 01:23:36;;;;;;;62.17;35.60;;;18.00;99.90;;;;;;4982193;28;20190;-72
2021/09/17 01:26:02;;;;;;;57.97;35.20;;;18.00;99.90;;;;;;4996312;28;20197;-72
2021/09/17 01:28:32;;;;;;;57.15;34.55;;;18.10;99.90;;;;;;4990432;28;20596;-71
2021/09/17 01:30:59;;;;;;;59.90;35.85;;;18.00;99.90;;;;;;4980635;28;20186;-72
2021/09/17 01:33:25;;;;;;;57.30;33.53;;;18.00;99.90;;;;;;4980179;28;20194;-72
2021/09/17 01:35:59;;;;;;;54.72;34.05;;;18.10;99.90;;;;;;4966383;28;20421;-70
2021/09/17 01:38:26;;;;;;;61.40;35.05;;;18.10;99.90;;;;;;4974443;28;20189;-73
2021/09/17 01:40:52;;;;;;;63.35;34.65;;;18.10;99.90;;;;;;4999743;28;20186;-73
2021/09/17 01:43:18;;;;;;;59.13;34.60;;;18.00;99.90;;;;;;4970154;28;20191;-71
2021/09/17 01:45:43;;;;;;;57.58;35.28;;;18.10;99.90;;;;;;4972518;28;20715;-72
2021/09/17 01:48:09;;;;;;;57.55;33.40;;;18.10;99.90;;;;;;4977469;28;20239;-71
2021/09/17 01:50:35;;;;;;;60.05;34.60;;;18.00;99.90;;;;;;4974934;28;20233;-71
2021/09/17 01:53:00;;;;;;;60.80;35.85;;;18.10;99.90;;;;;;4979432;28;20698;-72
2021/09/17 01:55:26;;;;;;;60.55;36.20;;;18.00;99.90;;;;;;4974380;28;20647;-71
2021/09/17 01:57:52;;;;;;;64.13;38.33;;;18.10;99.90;;;;;;4977728;28;20181;-71
2021/09/17 02:00:18;;;;;;;62.30;37.03;;;18.00;99.90;;;;;;4963613;28;20196;-72
2021/09/17 02:02:44;;;;;;;62.40;37.00;;;18.00;99.90;;;;;;4978624;28;20204;-72
2021/09/17 02:05:10;;;;;;;71.95;40.38;;;18.00;99.90;;;;;;4969171;28;20192;-72
2021/09/17 02:07:36;;;;;;;67.15;39.92;;;18.00;99.90;;;;;;4993862;28;20233;-73
2021/09/17 02:10:03;;;;;;;69.55;41.28;;;18.00;99.90;;;;;;4983764;28;20241;-72
2021/09/17 02:12:29;;;;;;;73.20;42.38;;;18.00;99.90;;;;;;4970899;28;20286;-72
2021/09/17 02:14:54;;;;;;;72.85;41.70;;;18.00;99.90;;;;;;4975608;28;20217;-72
2021/09/17 02:17:22;;;;;;;75.50;41.83;;;17.90;99.90;;;;;;4967095;28;20193;-73
2021/09/17 02:19:48;;;;;;;78.28;42.83;;;18.00;99.90;;;;;;4985289;28;20187;-73
2021/09/17 02:22:13;;;;;;;77.40;42.20;;;18.00;99.90;;;;;;4993942;28;20185;-73
2021/09/17 02:24:39;;;;;;;74.53;43.30;;;18.00;99.90;;;;;;4982175;28;20240;-73
2021/09/17 02:27:05;;;;;;;72.90;41.70;;;18.00;99.90;;;;;;4994186;28;20208;-73
2021/09/17 02:29:30;;;;;;;68.63;40.72;;;18.00;99.90;;;;;;4968939;28;20740;-74
2021/09/17 02:31:56;;;;;;;72.40;41.50;;;18.00;99.90;;;;;;4979551;28;20308;-73
2021/09/17 02:34:22;;;;;;;72.13;41.20;;;18.00;99.90;;;;;;4980985;28;20209;-74
2021/09/17 02:36:47;;;;;;;70.68;41.38;;;18.00;99.90;;;;;;4991236;28;20246;-73
2021/09/17 02:39:15;;;;;;;71.47;42.58;;;18.00;99.90;;;;;;4968293;28;20827;-72
2021/09/17 02:41:41;;;;;;;72.80;42.42;;;18.10;99.90;;;;;;4972723;28;20640;-72
2021/09/17 02:44:07;;;;;;;77.30;43.22;;;18.10;99.90;;;;;;4972681;28;20190;-71
2021/09/17 02:46:33;;;;;;;77.35;44.30;;;18.00;99.90;;;;;;4975616;28;20197;-72
2021/09/17 02:49:00;;;;;;;79.80;45.08;;;18.00;99.90;;;;;;4978595;28;20562;-73
2021/09/17 02:51:25;;;;;;;81.95;47.03;;;18.00;99.90;;;;;;4967291;28;20197;-72
2021/09/17 02:53:51;;;;;;;82.90;45.50;;;17.90;99.90;;;;;;4969977;28;20597;-72
2021/09/17 02:56:16;;;;;;;82.13;44.63;;;17.90;99.90;;;;;;4969755;28;20199;-72
2021/09/17 02:58:42;;;;;;;80.18;46.92;;;17.90;99.90;;;;;;4969691;28;20261;-72
2021/09/17 03:01:08;;;;;;;82.88;46.25;;;17.90;99.90;;;;;;4979129;28;20218;-72
2021/09/17 03:03:34;;;;;;;84.95;46.80;;;17.90;99.90;;;;;;4986374;28;20221;-72
2021/09/17 03:05:59;;;;;;;78.95;46.30;;;17.90;99.90;;;;;;4983541;28;20221;-72
2021/09/17 03:08:25;;;;;;;84.95;47.97;;;17.90;99.90;;;;;;4979427;28;20189;-73
2021/09/17 03:10:56;;;;;;;85.25;48.17;;;17.90;99.90;;;;;;4987353;28;20198;-73
2021/09/17 03:13:22;;;;;;;83.28;47.92;;;17.90;99.90;;;;;;4978859;28;20196;-73
2021/09/17 03:15:48;;;;;;;86.25;49.20;;;17.90;99.90;;;;;;4988525;28;20293;-73
2021/09/17 03:18:13;;;;;;;87.97;49.50;;;17.90;99.90;;;;;;4982566;28;20188;-73
2021/09/17 03:20:39;;;;;;;91.45;49.40;;;17.90;99.90;;;;;;4999457;28;20192;-73
2021/09/17 03:23:04;;;;;;;89.20;50.45;;;17.80;99.90;;;;;;4985430;28;20236;-71
2021/09/17 03:25:30;;;;;;;83.22;48.55;;;17.80;99.90;;;;;;4973443;28;20217;-72
2021/09/17 03:27:56;;;;;;;96.32;52.55;;;17.80;99.90;;;;;;4985475;28;20626;-72
2021/09/17 03:30:21;;;;;;;91.88;52.08;;;17.80;99.90;;;;;;4999655;28;20196;-72
2021/09/17 03:32:47;;;;;;;90.93;52.15;;;17.80;99.90;;;;;;5004122;28;20296;-73
2021/09/17 03:35:13;;;;;;;99.15;53.50;;;17.80;99.90;;;;;;4983014;28;20260;-73
2021/09/17 03:37:38;;;;;;;91.93;53.95;;;17.80;99.90;;;;;;4993228;28;20556;-71
2021/09/17 03:40:05;;;;;;;98.50;54.55;;;17.80;99.90;;;;;;4990871;28;20246;-71
2021/09/17 03:42:30;;;;;;;96.28;54.15;;;17.80;99.90;;;;;;5004720;28;20199;-70
2021/09/17 03:44:56;;;;;;;94.50;54.50;;;17.80;99.90;;;;;;4975600;28;20297;-73
2021/09/17 03:47:22;;;;;;;96.28;54.65;;;17.80;99.90;;;;;;4999424;28;20676;-71
2021/09/17 03:49:48;;;;;;;99.60;55.58;;;17.80;99.90;;;;;;4985293;28;20194;-72
2021/09/17 03:52:13;;;;;;;97.15;55.17;;;17.80;99.90;;;;;;4970144;28;20240;-71
2021/09/17 03:54:39;;;;;;;96.45;55.45;;;17.80;99.90;;;;;;4968675;28;20248;-72
2021/09/17 03:57:05;;;;;;;98.15;56.33;;;17.80;99.90;;;;;;4975314;28;20193;-72
2021/09/17 03:59:30;;;;;;;101.10;55.80;;;17.80;99.90;;;;;;4981379;28;20197;-72
2021/09/17 04:02:00;;;;;;;91.07;53.72;;;17.80;99.90;;;;;;5004012;28;20527;-72
2021/09/17 04:04:26;;;;;;;97.63;55.58;;;17.80;99.90;;;;;;4982098;28;20205;-73
2021/09/17 04:06:52;;;;;;;99.75;56.42;;;17.80;99.90;;;;;;4983957;28;20279;-72
2021/09/17 04:09:18;;;;;;;101.05;55.97;;;17.80;99.90;;;;;;4971510;28;20586;-72
2021/09/17 04:11:45;;;;;;;95.28;54.78;;;17.80;99.90;;;;;;4979469;28;20193;-73
2021/09/17 04:14:11;;;;;;;97.60;53.75;;;17.80;99.90;;;;;;4995055;28;20682;-73
2021/09/17 04:16:37;;;;;;;95.95;54.47;;;17.80;99.90;;;;;;4989163;28;20221;-72
2021/09/17 04:19:03;;;;;;;94.25;53.47;;;17.80;99.90;;;;;;4983524;28;20261;-73
2021/09/17 04:21:29;;;;;;;93.60;55.05;;;17.80;99.90;;;;;;4970784;28;20269;-73
2021/09/17 04:23:55;;;;;;;97.35;53.10;;;17.80;99.90;;;;;;4991505;28;20590;-72
2021/09/17 04:26:22;;;;;;;95.30;53.17;;;17.80;99.90;;;;;;4992074;28;20223;-73
2021/09/17 04:28:49;;;;;;;91.65;52.65;;;17.80;99.90;;;;;;4983815;28;20221;-72
2021/09/17 04:31:15;;;;;;;97.63;53.72;;;17.80;99.90;;;;;;4991493;28;20621;-72
2021/09/17 04:33:40;;;;;;;95.55;53.22;;;17.80;99.90;;;;;;4971763;28;20192;-70
2021/09/17 04:36:06;;;;;;;100.05;54.40;;;17.80;99.90;;;;;;4985936;28;20662;-72
2021/09/17 04:38:32;;;;;;;98.47;54.78;;;17.80;99.90;;;;;;4961960;28;20181;-71
2021/09/17 04:40:58;;;;;;;101.20;54.45;;;17.80;99.90;;;;;;4996446;28;20184;-71
2021/09/17 04:43:24;;;;;;;100.22;55.03;;;17.80;99.90;;;;;;4982206;28;20200;-71
2021/09/17 04:45:49;;;;;;;100.50;55.30;;;17.80;99.90;;;;;;5001730;28;20196;-72
2021/09/17 04:48:16;;;;;;;94.13;53.03;;;17.80;99.90;;;;;;4973296;28;20220;-73
2021/09/17 04:50:42;;;;;;;97.97;56.03;;;17.80;99.90;;;;;;4984374;28;20283;-73
2021/09/17 04:53:08;;;;;;;106.13;58.10;;;17.80;99.90;;;;;;4987124;28;20272;-72
2021/09/17 04:55:34;;;;;;;99.68;55.22;;;17.70;99.90;;;;;;4975210;28;20213;-72
2021/09/17 04:58:04;;;;;;;105.93;57.55;;;17.70;99.90;;;;;;4996817;28;20188;-72
2021/09/17 05:00:30;;;;;;;96.88;55.63;;;17.70;99.90;;;;;;4986888;28;20185;-74
2021/09/17 05:02:56;;;;;;;101.78;56.40;;;17.70;99.90;;;;;;4977675;28;20320;-74
2021/09/17 05:05:22;;;;;;;103.78;55.83;;;17.70;99.90;;;;;;4986108;28;20279;-69
2021/09/17 05:07:47;;;;;;;100.00;55.33;;;17.70;99.90;;;;;;5006815;28;20217;-70
2021/09/17 05:10:13;;;;;;;104.93;56.33;;;17.70;99.90;;;;;;5005823;28;20189;-69
2021/09/17 05:12:38;;;;;;;103.13;54.30;;;17.70;99.90;;;;;;5005688;28;21751;-69
2021/09/17 05:15:05;;;;;;;103.28;54.50;;;17.70;99.90;;;;;;5005889;28;20673;-70
2021/09/17 05:17:30;;;;;;;104.82;54.42;;;17.70;99.90;;;;;;4985678;28;20192;-69
2021/09/17 05:19:56;;;;;;;97.53;54.00;;;17.70;99.90;;;;;;5006014;28;20196;-69
2021/09/17 05:22:22;;;;;;;94.07;52.70;;;17.70;99.90;;;;;;5004950;28;20478;-70
2021/09/17 05:24:47;;;;;;;95.63;52.22;;;17.70;99.90;;;;;;5003799;28;20178;-70
2021/09/17 05:27:14;;;;;;;99.57;54.03;;;17.70;99.90;;;;;;4969928;28;20186;-67
2021/09/17 05:29:41;;;;;;;100.38;54.75;;;17.70;99.90;;;;;;4999740;28;20782;-71
2021/09/17 05:32:07;;;;;;;95.35;53.80;;;17.70;99.90;;;;;;5006064;28;20230;-71
2021/09/17 05:34:33;;;;;;;101.05;53.58;;;17.70;99.90;;;;;;5004623;28;20200;-69
2021/09/17 05:36:58;;;;;;;94.65;52.88;;;17.80;99.90;;;;;;5005624;28;20660;-70
2021/09/17 05:39:24;;;;;;;102.78;53.28;;;17.70;99.90;;;;;;4996957;28;20244;-69
2021/09/17 05:41:50;;;;;;;99.60;52.08;;;17.80;99.90;;;;;;4969450;28;20297;-69
2021/09/17 05:44:17;;;;;;;100.82;53.42;;;17.80;99.90;;;;;;4968260;28;20205;-71
2021/09/17 05:46:43;;;;;;;95.80;52.38;;;17.80;99.90;;;;;;4975867;28;20281;-69
2021/09/17 05:49:08;;;;;;;98.78;52.30;;;17.80;99.90;;;;;;4988174;28;20323;-72
2021/09/17 05:51:34;;;;;;;98.55;53.58;;;17.80;99.90;;;;;;4979074;28;20254;-71
2021/09/17 05:54:00;;;;;;;99.40;53.90;;;17.80;99.90;;;;;;4970927;28;20217;-69
2021/09/17 05:56:28;;;;;;;102.95;53.03;;;17.80;99.90;;;;;;4970497;28;20268;-70
2021/09/17 05:58:54;;;;;;;102.47;55.47;;;17.80;99.90;;;;;;4958689;28;20184;-71
2021/09/17 06:01:20;;;;;;;95.22;50.25;;;17.80;99.90;;;;;;5005408;28;20660;-73
2021/09/17 06:03:46;;;;;;;101.15;52.83;;;17.80;99.90;;;;;;4977826;28;20958;-70
2021/09/17 06:06:11;;;;;;;98.95;54.15;;;17.80;99.90;;;;;;4969373;28;20227;-70
2021/09/17 06:08:37;;;;;;;99.82;53.53;;;17.90;99.90;;;;;;4987738;28;20187;-70
2021/09/17 06:11:03;;;;;;;102.93;53.10;;;17.80;99.90;;;;;;4974772;28;20368;-72
2021/09/17 06:13:28;;;;;;;97.15;53.10;;;17.90;99.90;;;;;;4969357;28;20241;-71
2021/09/17 06:15:54;;;;;;;103.80;54.88;;;17.90;99.90;;;;;;4972297;28;20749;-73
2021/09/17 06:18:20;;;;;;;110.68;55.47;;;17.90;99.90;;;;;;4998732;28;20280;-68
2021/09/17 06:20:46;;;;;;;100.30;53.60;;;17.90;99.90;;;;;;5005248;28;20188;-70
2021/09/17 06:23:12;;;;;;;105.03;54.30;;;17.90;99.90;;;;;;5003643;28;20578;-72
2021/09/17 06:25:38;;;;;;;102.32;53.60;;;17.90;99.90;;;;;;5003807;28;20200;-71
2021/09/17 06:28:05;;;;;;;97.95;53.22;;;18.00;99.90;;;;;;4979371;28;20192;-69
2021/09/17 06:30:32;;;;;;;104.47;55.05;;;18.00;99.90;;;;;;4973436;28;20567;-71
2021/09/17 06:32:58;;;;;;;100.40;54.55;;;18.00;99.90;;;;;;5006756;28;20192;-72
2021/09/17 06:35:24;;;;;;;102.80;55.08;;;18.00;99.90;;;;;;4985993;28;20255;-70
2021/09/17 06:37:54;;;;;;;99.13;55.17;;;18.00;99.90;;;;;;5001571;28;20283;-70
2021/09/17 06:40:23;;;;;;;101.57;55.65;;;18.00;99.90;;;;;;4996721;28;20525;-73
2021/09/17 06:42:49;;;;;;;94.82;54.85;;;18.00;99.90;;;;;;4993690;28;20198;-76
2021/09/17 06:45:16;;;;;;;100.45;55.55;;;18.00;99.90;;;;;;4984962;28;20708;-76
2021/09/17 06:47:46;;;;;;;105.93;56.80;;;18.00;99.90;;;;;;4986377;28;20192;-76
2021/09/17 06:50:13;;;;;;;101.63;55.08;;;18.10;99.90;;;;;;4983013;28;20193;-76
2021/09/17 06:52:40;;;;;;;102.35;55.63;;;18.00;99.90;;;;;;4968605;28;20189;-78
2021/09/17 06:55:07;;;;;;;106.90;57.40;;;18.10;99.90;;;;;;4971562;28;20214;-75
2021/09/17 06:57:46;;;;;;;113.70;57.70;;;18.00;99.90;;;;;;4997897;28;20192;-73
2021/09/17 07:00:13;;;;;;;107.43;56.88;;;18.10;99.90;;;;;;4976908;28;20176;-74
2021/09/17 07:02:38;;;;;;;81.28;46.42;;;18.10;99.90;;;;;;4996588;28;20189;-75
2021/09/17 07:05:04;;;;;;;102.90;56.30;;;18.10;99.90;;;;;;4966409;28;20346;-75
2021/09/17 07:07:30;;;;;;;108.20;54.95;;;18.10;99.90;;;;;;4968623;28;20296;-74
2021/09/17 07:09:56;;;;;;;105.38;54.15;;;18.20;99.90;;;;;;4986463;28;20588;-77
2021/09/17 07:12:21;;;;;;;106.95;56.75;;;18.20;99.90;;;;;;4992731;28;21004;-77
2021/09/17 07:14:47;;;;;;;101.20;55.03;;;18.20;99.90;;;;;;4973540;28;20275;-75
2021/09/17 07:17:13;;;;;;;105.38;57.40;;;18.20;99.90;;;;;;4975526;28;20663;-77
2021/09/17 07:19:38;;;;;;;109.05;55.30;;;18.30;99.90;;;;;;4970557;28;20189;-75
2021/09/17 07:22:05;;;;;;;118.60;55.63;;;18.30;99.90;;;;;;4967412;28;20216;-77
2021/09/17 07:24:31;;;;;;;107.50;56.20;;;18.30;99.90;;;;;;4973129;28;20197;-74
2021/09/17 07:26:57;;;;;;;116.95;56.47;;;18.30;99.90;;;;;;4987554;28;20208;-73
2021/09/17 07:29:23;;;;;;;110.95;54.10;;;18.30;99.90;;;;;;5002534;28;20201;-74
2021/09/17 07:31:49;;;;;;;104.07;54.47;;;18.40;99.90;;;;;;4963585;28;20307;-76
2021/09/17 07:34:15;;;;;;;109.47;53.67;;;18.40;99.90;;;;;;4997756;28;20553;-75
2021/09/17 07:36:41;;;;;;;105.03;51.47;;;18.50;99.90;;;;;;4996973;28;20182;-76
2021/09/17 07:39:07;;;;;;;103.47;52.08;;;18.50;99.90;;;;;;4994633;28;20180;-75
2021/09/17 07:41:32;;;;;;;108.00;51.78;;;18.60;99.90;;;;;;4976939;28;20184;-76
2021/09/17 07:43:58;;;;;;;108.25;53.97;;;18.60;99.90;;;;;;4975625;28;20657;-76
2021/09/17 07:46:23;;;;;;;107.75;53.95;;;18.60;99.90;;;;;;4973132;28;20196;-77
2021/09/17 07:48:49;;;;;;;101.82;51.17;;;18.60;99.90;;;;;;4967219;28;20280;-74
2021/09/17 07:51:15;;;;;;;107.75;53.63;;;18.60;99.90;;;;;;4975203;28;20188;-77
2021/09/17 07:53:40;;;;;;;103.30;53.17;;;18.60;99.90;;;;;;5005815;28;20173;-75
2021/09/17 07:56:06;;;;;;;110.93;53.40;;;18.60;99.90;;;;;;4992318;28;20224;-76
2021/09/17 07:58:31;;;;;;;102.18;52.33;;;18.70;99.90;;;;;;4975069;28;20193;-77
2021/09/17 08:00:57;;;;;;;103.30;52.50;;;18.70;99.90;;;;;;4976367;28;20305;-75
2021/09/17 08:03:28;;;;;;;103.70;51.95;;;18.70;99.90;;;;;;4991771;28;20203;-74
2021/09/17 08:05:55;;;;;;;95.07;48.67;;;18.70;99.90;;;;;;4996393;28;20354;-75
2021/09/17 08:08:20;;;;;;;105.05;50.40;;;18.70;99.90;;;;;;5002577;28;20181;-74
2021/09/17 08:10:46;;;;;;;92.10;49.05;;;18.80;99.90;;;;;;4985132;28;20181;-74
2021/09/17 08:13:12;;;;;;;101.85;50.90;;;18.80;99.90;;;;;;4977365;28;20193;-76
2021/09/17 08:15:38;;;;;;;97.30;49.50;;;18.90;99.90;;;;;;4997021;28;20595;-77
2021/09/17 08:18:03;;;;;;;94.50;50.83;;;18.90;99.90;;;;;;4987162;28;20186;-75
2021/09/17 08:20:29;;;;;;;94.80;49.72;;;19.00;99.90;;;;;;4979803;28;20558;-73
2021/09/17 08:22:55;;;;;;;100.18;50.55;;;19.10;99.90;;;;;;4994855;28;20181;-74
2021/09/17 08:25:21;;;;;;;95.85;49.33;;;19.20;99.90;;;;;;4996330;28;20262;-72
2021/09/17 08:27:46;;;;;;;90.03;49.03;;;19.30;99.90;;;;;;4972059;28;20200;-74
2021/09/17 08:30:12;;;;;;;91.32;48.08;;;19.50;99.90;;;;;;4984349;28;20235;-75
2021/09/17 08:32:39;;;;;;;93.85;48.13;;;19.60;99.90;;;;;;4995224;28;20279;-73
2021/09/17 08:35:08;;;;;;;85.68;47.38;;;19.80;99.90;;;;;;4997151;28;20234;-75
2021/09/17 08:37:36;;;;;;;88.00;46.03;;;19.90;99.90;;;;;;4974851;28;20949;-73
2021/09/17 08:40:03;;;;;;;80.68;45.53;;;19.90;99.90;;;;;;5005835;28;20184;-72
2021/09/17 08:42:31;;;;;;;80.03;46.22;;;19.90;99.90;;;;;;4989437;28;20937;-73
2021/09/17 08:45:00;;;;;;;78.55;44.10;;;20.00;99.90;;;;;;5001121;28;20185;-72
2021/09/17 08:47:26;;;;;;;83.82;45.35;;;20.00;99.90;;;;;;4978410;28;21024;-71
2021/09/17 08:49:53;;;;;;;90.55;47.72;;;20.00;99.90;;;;;;4977577;28;20197;-70
2021/09/17 08:52:20;;;;;;;87.22;46.63;;;20.10;99.90;;;;;;4973824;28;20247;-70
2021/09/17 08:54:46;;;;;;;87.18;44.80;;;20.10;99.90;;;;;;5004718;28;20678;-70
2021/09/17 08:57:11;;;;;;;80.32;44.03;;;20.20;99.90;;;;;;4976885;28;20753;-70
2021/09/17 08:59:37;;;;;;;85.50;44.45;;;20.10;99.90;;;;;;5006963;28;20185;-70
2021/09/17 09:02:23;;;;;;;82.70;44.90;;;20.20;99.90;;;;;;4987581;28;20186;-73
2021/09/17 09:05:07;;;;;;;77.75;43.97;;;20.20;99.90;;;;;;4970379;28;20190;-74
2021/09/17 09:07:38;;;;;;;79.05;44.88;;;20.20;99.90;;;;;;4982339;28;20244;-72
2021/09/17 09:10:15;;;;;;;81.53;44.53;;;20.20;99.90;;;;;;4986022;28;20205;-69
2021/09/17 09:12:46;;;;;;;81.45;45.67;;;20.10;99.90;;;;;;4964706;28;20759;-72
2021/09/17 09:15:26;;;;;;;80.18;43.58;;;20.10;99.90;;;;;;4970411;28;20237;-73
2021/09/17 09:17:58;;;;;;;76.55;43.38;;;20.10;99.90;;;;;;4964628;28;20189;-72
2021/09/17 09:20:31;;;;;;;79.05;44.00;;;20.10;99.90;;;;;;4990623;28;20560;-74
2021/09/17 09:23:19;;;;;;;70.10;40.70;;;20.10;99.90;;;;;;5006317;28;20188;-72
2021/09/17 09:25:57;;;;;;;74.53;40.22;;;20.10;99.90;;;;;;4969636;28;20200;-70
2021/09/17 09:28:30;;;;;;;73.22;41.78;;;20.10;99.90;;;;;;4970679;28;20279;-74
2021/09/17 09:30:57;;;;;;;67.95;40.22;;;20.10;99.90;;;;;;5006292;28;20224;-75
2021/09/17 09:33:23;;;;;;;62.85;37.92;;;20.10;99.90;;;;;;4973876;28;20252;-70
2021/09/17 09:36:18;;;;;;;65.38;39.40;;;20.10;99.90;;;;;;4988006;28;20773;-70
2021/09/17 09:38:52;;;;;;;69.05;38.63;;;20.10;99.90;;;;;;4985110;28;20716;-69
2021/09/17 09:41:19;;;;;;;68.78;38.10;;;20.00;99.90;;;;;;4968483;28;20189;-71
2021/09/17 09:43:52;;;;;;;62.30;36.97;;;19.90;99.90;;;;;;4972685;28;20189;-69
2021/09/17 09:46:33;;;;;;;66.47;37.72;;;19.90;99.90;;;;;;4966837;28;20193;-69
2021/09/17 09:48:58;;;;;;;71.25;38.67;;;19.90;99.90;;;;;;4973915;28;20181;-71
2021/09/17 09:51:34;;;;;;;70.38;40.70;;;19.80;99.90;;;;;;4975352;28;20596;-71
2021/09/17 09:54:03;;;;;;;81.25;41.35;;;19.70;99.90;;;;;;4973555;28;20268;-71
2021/09/17 09:56:29;;;;;;;76.57;41.72;;;19.60;99.90;;;;;;4970025;28;20194;-73
2021/09/17 09:58:55;;;;;;;67.57;38.40;;;19.50;99.90;;;;;;4969684;28;20292;-74
2021/09/17 10:01:23;;;;;;;66.65;37.83;;;19.40;99.90;;;;;;4988329;28;20216;-73
2021/09/17 10:03:52;;;;;;;73.65;40.35;;;19.30;99.90;;;;;;4986117;28;20186;-73
2021/09/17 10:06:17;;;;;;;72.40;42.05;;;19.20;99.90;;;;;;4984570;28;20694;-72
2021/09/17 10:08:44;;;;;;;67.57;37.70;;;19.20;99.90;;;;;;4974303;28;20280;-73
2021/09/17 10:11:10;;;;;;;50.08;29.88;;;19.20;99.90;;;;;;4974559;28;20194;-72
2021/09/17 10:13:36;;;;;;;46.83;31.00;;;19.20;99.90;;;;;;4988853;28;20194;-73
2021/09/17 10:16:02;;;;;;;43.17;25.73;;;19.20;99.90;;;;;;4973155;28;20210;-73
2021/09/17 10:18:28;;;;;;;39.20;24.02;;;19.20;99.90;;;;;;4980760;28;20228;-72
2021/09/17 10:20:54;;;;;;;39.20;24.08;;;19.20;99.90;;;;;;4973518;28;20200;-73
2021/09/17 10:23:30;;;;;;;36.90;22.33;;;19.10;99.90;;;;;;4979883;28;20186;-73
2021/09/17 10:26:03;;;;;;;40.20;23.63;;;19.10;99.90;;;;;;4979909;28;20196;-70
2021/09/17 10:28:29;;;;;;;34.47;24.02;;;19.00;99.90;;;;;;4976032;28;20213;-74
2021/09/17 10:31:16;;;;;;;32.28;21.55;;;19.00;99.90;;;;;;4978852;28;20258;-73
2021/09/17 10:33:42;;;;;;;34.55;24.13;;;19.00;99.90;;;;;;4976836;28;20701;-73
2021/09/17 10:36:08;;;;;;;33.60;22.80;;;19.10;99.90;;;;;;4977055;28;20214;-72
2021/09/17 10:38:34;;;;;;;28.92;21.20;;;19.10;99.90;;;;;;4986823;28;20244;-72
2021/09/17 10:41:02;;;;;;;27.42;20.15;;;19.20;99.90;;;;;;4968775;28;20209;-73
2021/09/17 10:43:41;;;;;;;33.15;19.80;;;19.30;99.90;;;;;;4968199;28;20189;-72
2021/09/17 10:46:08;;;;;;;30.65;19.95;;;19.40;99.90;;;;;;4969048;28;20688;-73
2021/09/17 10:48:56;;;;;;;27.42;18.83;;;19.40;99.90;;;;;;4979056;28;20186;-73
2021/09/17 10:51:42;;;;;;;25.95;18.00;;;19.50;99.90;;;;;;4974951;28;20292;-73
2021/09/17 10:54:10;;;;;;;28.88;17.15;;;19.70;99.90;;;;;;4971090;28;20209;-72
2021/09/17 10:56:48;;;;;;;24.48;15.57;;;19.80;99.90;;;;;;4998477;28;20535;-72
2021/09/17 10:59:25;;;;;;;26.17;15.70;;;20.00;99.90;;;;;;4990297;28;20198;-72
2021/09/17 11:01:54;;;;;;;19.27;14.07;;;20.30;99.90;;;;;;4986856;28;20184;-72
2021/09/17 11:04:26;;;;;;;;;;;20.60;99.90;;;;;;4974449;28;20068;-73
2021/09/17 11:06:53;;;;;;;20.83;13.10;;;21.00;99.90;;;;;;4973161;28;20299;-72
2021/09/17 11:09:38;;;;;;;24.05;14.48;;;21.30;99.90;;;;;;4966989;28;20197;-73
2021/09/17 11:12:22;;;;;;;18.23;12.45;;;21.50;99.90;;;;;;4968230;28;20966;-73
2021/09/17 11:14:58;;;;;;;17.73;12.25;;;21.70;99.90;;;;;;4991808;28;20296;-73
2021/09/17 11:17:38;;;;;;;18.00;13.18;;;21.70;99.90;;;;;;4982641;28;20563;-73
2021/09/17 11:20:06;;;;;;;21.50;13.85;;;21.70;99.90;;;;;;4977079;28;20184;-72
2021/09/17 11:23:05;;;;;;;15.93;11.35;;;21.70;99.90;;;;;;4978354;28;20185;-72
2021/09/17 11:25:37;;;;;;;15.32;10.00;;;21.70;99.90;;;;;;4969734;28;20193;-72
2021/09/17 11:28:27;;;;;;;16.63;9.75;;;21.70;99.90;;;;;;4975534;28;21106;-72
2021/09/17 11:31:06;;;;;;;16.08;9.43;;;21.80;99.90;;;;;;4984498;28;20635;-73
2021/09/17 11:33:31;;;;;;;11.88;9.35;;;22.00;99.90;;;;;;4993995;28;20624;-74
2021/09/17 11:35:57;;;;;;;11.50;8.57;;;22.30;99.90;;;;;;4966409;28;20233;-74
2021/09/17 11:38:23;;;;;;;12.82;8.13;;;22.40;99.90;;;;;;4978736;28;20204;-74
2021/09/17 11:40:54;;;;;;;13.25;7.72;;;22.50;99.90;;;;;;4969588;28;20189;-74
2021/09/17 11:43:21;;;;;;;10.80;7.03;;;22.60;99.60;;;;;;4972525;28;20205;-73
2021/09/17 11:45:48;;;;;;;7.90;4.70;;;23.00;99.70;;;;;;4988032;28;20198;-73
2021/09/17 11:48:27;;;;;;;6.63;4.18;;;23.50;99.00;;;;;;4968527;28;20262;-72
2021/09/17 11:50:54;;;;;;;7.68;3.65;;;23.90;97.50;;;;;;4991538;28;20184;-73
2021/09/17 11:53:21;;;;;;;5.80;2.50;;;24.10;96.80;;;;;;4981554;28;20197;-73
2021/09/17 11:55:46;;;;;;;4.90;2.47;;;24.20;95.80;;;;;;4980629;28;20223;-76
2021/09/17 11:58:12;;;;;;;7.03;2.55;;;24.40;94.90;;;;;;4986747;28;20285;-73
2021/09/17 12:00:39;;;;;;;6.30;2.30;;;24.80;94.50;;;;;;4987490;28;20173;-74
2021/09/17 12:03:07;;;;;;;6.95;2.20;;;25.20;93.40;;;;;;4987536;28;20931;-75
2021/09/17 12:05:43;;;;;;;3.85;2.30;;;25.40;92.40;;;;;;4976482;28;20213;-73
2021/09/17 12:08:10;;;;;;;4.78;2.00;;;25.40;91.60;;;;;;4969467;28;20559;-74
2021/09/17 12:10:38;;;;;;;4.80;1.90;;;25.40;91.20;;;;;;4968564;28;20197;-75
2021/09/17 12:13:07;;;;;;;4.88;2.20;;;25.70;90.80;;;;;;4992701;28;20221;-75
2021/09/17 12:15:44;;;;;;;4.05;1.67;;;25.80;89.60;;;;;;4969091;28;20205;-74
2021/09/17 12:18:17;;;;;;;4.45;1.75;;;25.90;88.10;;;;;;4968954;28;20182;-74
2021/09/17 12:20:44;;;;;;;4.88;1.60;;;26.10;87.10;;;;;;4969223;28;20190;-73
2021/09/17 12:23:12;;;;;;;5.97;1.90;;;26.20;85.00;;;;;;4989815;28;20276;-73
2021/09/17 12:25:38;;;;;;;3.75;1.73;;;26.20;83.60;;;;;;4968627;28;20221;-74
2021/09/17 12:28:09;;;;;;;5.60;1.83;;;26.20;82.00;;;;;;4986740;28;20189;-73